ENBN

Brønnøysund Airport

Brønnøy, Norway
TAF ENBN 171400Z 1715/1719 20012KT 9999 FEW008 SCT025 TEMPO 1715/1719 SHRA SCT015CB
Issued Valid From Valid To
Aug-17 @ 14:00 UTC
(56 minutes ago)
Aug-17 @ 15:00 UTC
(in 4 minutes)
Aug-17 @ 19:00 UTC
(in 4 hours)
Aug-17 @ 15:00 to Aug-17 @ 19:00
TAF ENBN 171400Z 1715/1719 20012KT 9999 FEW008 SCT025
Wind Visibility Clouds
200° at 12 knots 10,000+ meters
  • Few at 800' AGL
  • Scattered at 2,500' AGL
Temporary Aug-17 @ 15:00 to Aug-17 @ 19:00
TEMPO 1715/1719 SHRA SCT015CB
Clouds Conditions
  • Scattered at 1,500' AGL
  • Rain
TAF ENBN 171400Z 1715/1719 20012KT 9999 FEW008 SCT025 TEMPO 1715/1719 SHRA SCT015CB
Issued Aug-17 @ 14:00 UTC
(56 minutes ago)
Valid From Aug-17 @ 15:00 UTC
(in 4 minutes)
Valid To Aug-17 @ 19:00 UTC
(in 4 hours)
Aug-17 @ 15:00 - Aug-17 @ 19:00
Wind Visibility
200° at 12 knots 10,000+ meters
Clouds
  • Few at 800' AGL
  • Scattered at 2,500' AGL
Temporary Aug-17 @ 15:00 - Aug-17 @ 19:00
Clouds
  • Scattered at 1,500' AGL
Conditions
  • Rain